sensor_id;sensor_type;location;lat;lon;timestamp;P1;durP1;ratioP1;P2;durP2;ratioP2
2201;SDS011;1107;48.654;9.250;2022-08-01T00:01:39;3.20;;;3.00;;
2201;SDS011;1107;48.654;9.250;2022-08-01T00:04:07;3.30;;;3.10;;
2201;SDS011;1107;48.654;9.250;2022-08-01T00:06:34;3.10;;;2.90;;
2201;SDS011;1107;48.654;9.250;2022-08-01T00:09:01;3.20;;;3.00;;
2201;SDS011;1107;48.654;9.250;2022-08-01T00:11:28;3.13;;;2.93;;
2201;SDS011;1107;48.654;9.250;2022-08-01T00:13:55;3.10;;;2.90;;
2201;SDS011;1107;48.654;9.250;2022-08-01T00:16:22;6.83;;;3.43;;
2201;SDS011;1107;48.654;9.250;2022-08-01T00:18:49;2.93;;;2.73;;
2201;SDS011;1107;48.654;9.250;2022-08-01T00:21:18;3.20;;;3.00;;
2201;SDS011;1107;48.654;9.250;2022-08-01T00:23:45;3.00;;;2.70;;
2201;SDS011;1107;48.654;9.250;2022-08-01T00:26:12;3.40;;;3.13;;
2201;SDS011;1107;48.654;9.250;2022-08-01T00:28:40;5.07;;;3.17;;
2201;SDS011;1107;48.654;9.250;2022-08-01T00:31:07;3.40;;;3.20;;
2201;SDS011;1107;48.654;9.250;2022-08-01T00:33:34;3.60;;;3.40;;
2201;SDS011;1107;48.654;9.250;2022-08-01T00:36:01;3.13;;;2.93;;
2201;SDS011;1107;48.654;9.250;2022-08-01T00:38:30;4.17;;;3.40;;
2201;SDS011;1107;48.654;9.250;2022-08-01T00:40:57;3.30;;;3.10;;
2201;SDS011;1107;48.654;9.250;2022-08-01T00:43:24;5.60;;;3.20;;
2201;SDS011;1107;48.654;9.250;2022-08-01T00:45:51;3.57;;;3.37;;
2201;SDS011;1107;48.654;9.250;2022-08-01T00:48:18;3.63;;;3.33;;
2201;SDS011;1107;48.654;9.250;2022-08-01T00:50:45;6.53;;;3.10;;
2201;SDS011;1107;48.654;9.250;2022-08-01T00:53:12;3.27;;;3.07;;
2201;SDS011;1107;48.654;9.250;2022-08-01T00:55:40;3.73;;;3.53;;
2201;SDS011;1107;48.654;9.250;2022-08-01T00:58:08;3.60;;;3.40;;
2201;SDS011;1107;48.654;9.250;2022-08-01T01:00:35;3.40;;;3.10;;
2201;SDS011;1107;48.654;9.250;2022-08-01T01:03:02;3.90;;;3.70;;
2201;SDS011;1107;48.654;9.250;2022-08-01T01:05:30;4.40;;;3.10;;
2201;SDS011;1107;48.654;9.250;2022-08-01T01:08:02;3.60;;;3.40;;
2201;SDS011;1107;48.654;9.250;2022-08-01T01:10:36;3.60;;;3.40;;
2201;SDS011;1107;48.654;9.250;2022-08-01T01:13:13;4.10;;;3.80;;
2201;SDS011;1107;48.654;9.250;2022-08-01T01:15:47;3.67;;;3.47;;
2201;SDS011;1107;48.654;9.250;2022-08-01T01:18:22;3.83;;;3.63;;
2201;SDS011;1107;48.654;9.250;2022-08-01T01:20:51;3.70;;;3.50;;
2201;SDS011;1107;48.654;9.250;2022-08-01T01:23:32;3.80;;;3.60;;
2201;SDS011;1107;48.654;9.250;2022-08-01T01:29:03;6.93;;;3.80;;
2201;SDS011;1107;48.654;9.250;2022-08-01T01:31:36;4.73;;;3.57;;
2201;SDS011;1107;48.654;9.250;2022-08-01T01:34:08;4.00;;;3.67;;
2201;SDS011;1107;48.654;9.250;2022-08-01T01:36:37;3.70;;;3.50;;
2201;SDS011;1107;48.654;9.250;2022-08-01T01:39:05;4.20;;;4.00;;
2201;SDS011;1107;48.654;9.250;2022-08-01T01:41:33;3.77;;;3.57;;
2201;SDS011;1107;48.654;9.250;2022-08-01T01:44:04;4.07;;;3.87;;
2201;SDS011;1107;48.654;9.250;2022-08-01T01:46:32;4.07;;;3.77;;
2201;SDS011;1107;48.654;9.250;2022-08-01T01:49:00;4.10;;;3.90;;
2201;SDS011;1107;48.654;9.250;2022-08-01T01:51:28;4.03;;;3.83;;
2201;SDS011;1107;48.654;9.250;2022-08-01T01:53:56;4.23;;;4.03;;
2201;SDS011;1107;48.654;9.250;2022-08-01T01:56:25;3.53;;;3.33;;
2201;SDS011;1107;48.654;9.250;2022-08-01T01:58:55;3.73;;;3.50;;
2201;SDS011;1107;48.654;9.250;2022-08-01T02:01:27;4.10;;;3.90;;
2201;SDS011;1107;48.654;9.250;2022-08-01T02:03:55;3.77;;;3.57;;
2201;SDS011;1107;48.654;9.250;2022-08-01T02:06:23;4.07;;;3.87;;
2201;SDS011;1107;48.654;9.250;2022-08-01T02:08:53;4.30;;;4.00;;
2201;SDS011;1107;48.654;9.250;2022-08-01T02:11:20;4.67;;;4.10;;
2201;SDS011;1107;48.654;9.250;2022-08-01T02:13:51;4.50;;;4.20;;
2201;SDS011;1107;48.654;9.250;2022-08-01T02:16:21;4.47;;;4.17;;
2201;SDS011;1107;48.654;9.250;2022-08-01T02:18:52;3.80;;;3.60;;
2201;SDS011;1107;48.654;9.250;2022-08-01T02:21:21;3.90;;;3.70;;
2201;SDS011;1107;48.654;9.250;2022-08-01T02:23:52;4.20;;;3.90;;
2201;SDS011;1107;48.654;9.250;2022-08-01T02:26:22;4.00;;;3.70;;
2201;SDS011;1107;48.654;9.250;2022-08-01T02:28:50;4.20;;;4.00;;
2201;SDS011;1107;48.654;9.250;2022-08-01T02:31:23;4.30;;;4.10;;
2201;SDS011;1107;48.654;9.250;2022-08-01T02:33:54;3.87;;;3.67;;
2201;SDS011;1107;48.654;9.250;2022-08-01T02:36:25;4.57;;;3.90;;
2201;SDS011;1107;48.654;9.250;2022-08-01T02:38:54;4.07;;;3.83;;
2201;SDS011;1107;48.654;9.250;2022-08-01T02:41:23;4.73;;;4.50;;
2201;SDS011;1107;48.654;9.250;2022-08-01T02:43:52;4.37;;;4.17;;
2201;SDS011;1107;48.654;9.250;2022-08-01T02:46:29;4.40;;;4.00;;
2201;SDS011;1107;48.654;9.250;2022-08-01T02:49:02;4.23;;;4.00;;
2201;SDS011;1107;48.654;9.250;2022-08-01T02:51:31;4.13;;;3.93;;
2201;SDS011;1107;48.654;9.250;2022-08-01T02:54:01;4.43;;;4.23;;
2201;SDS011;1107;48.654;9.250;2022-08-01T02:56:30;3.77;;;3.57;;
2201;SDS011;1107;48.654;9.250;2022-08-01T02:59:03;4.30;;;4.10;;
2201;SDS011;1107;48.654;9.250;2022-08-01T03:01:32;4.50;;;4.20;;
2201;SDS011;1107;48.654;9.250;2022-08-01T03:04:03;4.23;;;3.93;;
2201;SDS011;1107;48.654;9.250;2022-08-01T03:06:31;4.00;;;3.80;;
2201;SDS011;1107;48.654;9.250;2022-08-01T03:09:00;4.10;;;3.90;;
2201;SDS011;1107;48.654;9.250;2022-08-01T03:11:27;4.93;;;4.07;;
2201;SDS011;1107;48.654;9.250;2022-08-01T03:13:56;4.47;;;4.27;;
2201;SDS011;1107;48.654;9.250;2022-08-01T03:16:25;4.67;;;4.33;;
2201;SDS011;1107;48.654;9.250;2022-08-01T03:18:54;4.53;;;4.23;;
2201;SDS011;1107;48.654;9.250;2022-08-01T03:21:24;4.23;;;4.03;;
2201;SDS011;1107;48.654;9.250;2022-08-01T03:23:54;4.43;;;4.23;;
2201;SDS011;1107;48.654;9.250;2022-08-01T03:26:24;4.90;;;4.40;;
2201;SDS011;1107;48.654;9.250;2022-08-01T03:28:54;4.07;;;3.77;;
2201;SDS011;1107;48.654;9.250;2022-08-01T03:31:24;4.10;;;3.90;;
2201;SDS011;1107;48.654;9.250;2022-08-01T03:33:52;4.53;;;4.33;;
2201;SDS011;1107;48.654;9.250;2022-08-01T03:36:21;4.53;;;4.23;;
2201;SDS011;1107;48.654;9.250;2022-08-01T03:38:52;4.50;;;4.30;;
2201;SDS011;1107;48.654;9.250;2022-08-01T03:41:22;3.83;;;3.63;;
2201;SDS011;1107;48.654;9.250;2022-08-01T03:43:54;3.87;;;3.67;;
2201;SDS011;1107;48.654;9.250;2022-08-01T03:46:26;3.93;;;3.63;;
2201;SDS011;1107;48.654;9.250;2022-08-01T03:48:58;4.60;;;4.30;;
2201;SDS011;1107;48.654;9.250;2022-08-01T03:51:31;3.90;;;3.70;;
2201;SDS011;1107;48.654;9.250;2022-08-01T03:53:59;4.57;;;4.27;;
2201;SDS011;1107;48.654;9.250;2022-08-01T03:56:27;4.00;;;3.80;;
2201;SDS011;1107;48.654;9.250;2022-08-01T03:58:57;4.00;;;3.70;;
2201;SDS011;1107;48.654;9.250;2022-08-01T04:01:25;4.10;;;3.90;;
2201;SDS011;1107;48.654;9.250;2022-08-01T04:03:54;3.90;;;3.70;;
2201;SDS011;1107;48.654;9.250;2022-08-01T04:06:21;3.23;;;3.03;;
2201;SDS011;1107;48.654;9.250;2022-08-01T04:08:50;3.80;;;3.60;;
2201;SDS011;1107;48.654;9.250;2022-08-01T04:11:21;8.37;;;3.53;;
2201;SDS011;1107;48.654;9.250;2022-08-01T04:13:50;3.43;;;3.23;;
2201;SDS011;1107;48.654;9.250;2022-08-01T04:16:18;3.03;;;2.83;;
2201;SDS011;1107;48.654;9.250;2022-08-01T04:18:45;3.77;;;3.57;;
2201;SDS011;1107;48.654;9.250;2022-08-01T04:21:12;4.00;;;3.70;;
2201;SDS011;1107;48.654;9.250;2022-08-01T04:23:39;4.30;;;4.10;;
2201;SDS011;1107;48.654;9.250;2022-08-01T04:26:11;4.40;;;4.10;;
2201;SDS011;1107;48.654;9.250;2022-08-01T04:28:41;3.93;;;3.70;;
2201;SDS011;1107;48.654;9.250;2022-08-01T04:31:09;4.03;;;3.83;;
2201;SDS011;1107;48.654;9.250;2022-08-01T04:33:39;4.00;;;3.80;;
2201;SDS011;1107;48.654;9.250;2022-08-01T04:36:08;4.87;;;4.57;;
2201;SDS011;1107;48.654;9.250;2022-08-01T04:38:38;4.20;;;3.90;;
2201;SDS011;1107;48.654;9.250;2022-08-01T04:41:11;4.37;;;4.07;;
2201;SDS011;1107;48.654;9.250;2022-08-01T04:43:40;5.20;;;4.90;;
2201;SDS011;1107;48.654;9.250;2022-08-01T04:46:08;4.90;;;4.50;;
2201;SDS011;1107;48.654;9.250;2022-08-01T04:48:36;5.10;;;4.80;;
2201;SDS011;1107;48.654;9.250;2022-08-01T04:51:04;5.20;;;4.80;;
2201;SDS011;1107;48.654;9.250;2022-08-01T04:53:40;4.70;;;4.50;;
2201;SDS011;1107;48.654;9.250;2022-08-01T04:56:07;4.37;;;4.17;;
2201;SDS011;1107;48.654;9.250;2022-08-01T04:58:36;4.50;;;4.20;;
2201;SDS011;1107;48.654;9.250;2022-08-01T05:01:03;4.90;;;4.70;;
2201;SDS011;1107;48.654;9.250;2022-08-01T05:03:30;4.40;;;4.20;;
2201;SDS011;1107;48.654;9.250;2022-08-01T05:05:56;4.90;;;4.53;;
2201;SDS011;1107;48.654;9.250;2022-08-01T05:08:23;4.80;;;4.60;;
2201;SDS011;1107;48.654;9.250;2022-08-01T05:10:51;4.50;;;4.30;;
2201;SDS011;1107;48.654;9.250;2022-08-01T05:13:18;5.00;;;4.40;;
2201;SDS011;1107;48.654;9.250;2022-08-01T05:15:46;4.10;;;3.90;;
2201;SDS011;1107;48.654;9.250;2022-08-01T05:18:13;4.43;;;4.23;;
2201;SDS011;1107;48.654;9.250;2022-08-01T05:20:41;5.07;;;4.77;;
2201;SDS011;1107;48.654;9.250;2022-08-01T05:23:08;4.90;;;4.43;;
2201;SDS011;1107;48.654;9.250;2022-08-01T05:25:35;4.45;;;4.05;;
2201;SDS011;1107;48.654;9.250;2022-08-01T05:28:03;9.20;;;4.60;;
2201;SDS011;1107;48.654;9.250;2022-08-01T05:30:30;5.00;;;4.43;;
2201;SDS011;1107;48.654;9.250;2022-08-01T05:32:59;5.40;;;5.00;;
2201;SDS011;1107;48.654;9.250;2022-08-01T05:35:26;6.20;;;5.63;;
2201;SDS011;1107;48.654;9.250;2022-08-01T05:37:53;5.60;;;5.30;;
2201;SDS011;1107;48.654;9.250;2022-08-01T05:40:20;8.57;;;5.00;;
2201;SDS011;1107;48.654;9.250;2022-08-01T05:42:47;4.70;;;4.30;;
2201;SDS011;1107;48.654;9.250;2022-08-01T05:45:14;4.00;;;3.80;;
2201;SDS011;1107;48.654;9.250;2022-08-01T05:47:41;4.23;;;3.83;;
2201;SDS011;1107;48.654;9.250;2022-08-01T05:50:09;3.93;;;3.73;;
2201;SDS011;1107;48.654;9.250;2022-08-01T05:52:36;3.27;;;3.07;;
2201;SDS011;1107;48.654;9.250;2022-08-01T05:55:04;3.70;;;3.40;;
2201;SDS011;1107;48.654;9.250;2022-08-01T05:57:32;3.30;;;3.10;;
2201;SDS011;1107;48.654;9.250;2022-08-01T05:59:59;7.00;;;4.17;;
2201;SDS011;1107;48.654;9.250;2022-08-01T06:02:26;4.80;;;3.50;;
2201;SDS011;1107;48.654;9.250;2022-08-01T06:04:53;4.00;;;3.70;;
2201;SDS011;1107;48.654;9.250;2022-08-01T06:07:22;3.83;;;3.63;;
2201;SDS011;1107;48.654;9.250;2022-08-01T06:09:49;3.00;;;2.80;;
2201;SDS011;1107;48.654;9.250;2022-08-01T06:12:16;2.90;;;2.70;;
2201;SDS011;1107;48.654;9.250;2022-08-01T06:14:43;3.00;;;2.80;;
2201;SDS011;1107;48.654;9.250;2022-08-01T06:17:10;2.20;;;2.10;;
2201;SDS011;1107;48.654;9.250;2022-08-01T06:19:37;2.63;;;2.43;;
2201;SDS011;1107;48.654;9.250;2022-08-01T06:22:04;2.33;;;2.13;;
2201;SDS011;1107;48.654;9.250;2022-08-01T06:24:33;3.73;;;2.00;;
2201;SDS011;1107;48.654;9.250;2022-08-01T06:27:00;3.60;;;2.03;;
2201;SDS011;1107;48.654;9.250;2022-08-01T06:29:29;2.97;;;2.50;;
2201;SDS011;1107;48.654;9.250;2022-08-01T06:31:56;2.00;;;1.80;;
2201;SDS011;1107;48.654;9.250;2022-08-01T06:34:23;2.43;;;1.97;;
2201;SDS011;1107;48.654;9.250;2022-08-01T06:36:51;2.53;;;2.27;;
2201;SDS011;1107;48.654;9.250;2022-08-01T06:39:18;2.30;;;2.10;;
2201;SDS011;1107;48.654;9.250;2022-08-01T06:41:46;5.23;;;2.10;;
2201;SDS011;1107;48.654;9.250;2022-08-01T06:44:13;2.40;;;2.20;;
2201;SDS011;1107;48.654;9.250;2022-08-01T06:46:40;3.40;;;3.20;;
2201;SDS011;1107;48.654;9.250;2022-08-01T06:49:07;2.40;;;2.20;;
2201;SDS011;1107;48.654;9.250;2022-08-01T06:51:34;2.97;;;2.77;;
2201;SDS011;1107;48.654;9.250;2022-08-01T06:54:01;2.07;;;1.97;;
2201;SDS011;1107;48.654;9.250;2022-08-01T06:56:29;3.20;;;2.20;;
2201;SDS011;1107;48.654;9.250;2022-08-01T06:58:57;2.60;;;2.40;;
2201;SDS011;1107;48.654;9.250;2022-08-01T07:01:26;3.30;;;3.10;;
2201;SDS011;1107;48.654;9.250;2022-08-01T07:03:53;2.40;;;2.30;;
2201;SDS011;1107;48.654;9.250;2022-08-01T07:06:21;4.00;;;3.67;;
2201;SDS011;1107;48.654;9.250;2022-08-01T07:08:49;2.50;;;2.30;;
2201;SDS011;1107;48.654;9.250;2022-08-01T07:11:16;1.90;;;1.80;;
2201;SDS011;1107;48.654;9.250;2022-08-01T07:13:43;5.50;;;2.37;;
2201;SDS011;1107;48.654;9.250;2022-08-01T07:16:12;2.23;;;2.13;;
2201;SDS011;1107;48.654;9.250;2022-08-01T07:18:39;4.57;;;2.40;;
2201;SDS011;1107;48.654;9.250;2022-08-01T07:21:06;2.33;;;2.13;;
2201;SDS011;1107;48.654;9.250;2022-08-01T07:23:33;2.50;;;2.30;;
2201;SDS011;1107;48.654;9.250;2022-08-01T07:26:00;2.40;;;2.30;;
2201;SDS011;1107;48.654;9.250;2022-08-01T07:28:29;4.30;;;2.50;;
2201;SDS011;1107;48.654;9.250;2022-08-01T07:30:56;4.13;;;2.60;;
2201;SDS011;1107;48.654;9.250;2022-08-01T07:33:24;2.77;;;2.57;;
2201;SDS011;1107;48.654;9.250;2022-08-01T07:35:51;5.07;;;2.20;;
2201;SDS011;1107;48.654;9.250;2022-08-01T07:38:18;2.40;;;2.20;;
2201;SDS011;1107;48.654;9.250;2022-08-01T07:40:45;2.37;;;2.17;;
2201;SDS011;1107;48.654;9.250;2022-08-01T07:43:12;2.30;;;2.20;;
2201;SDS011;1107;48.654;9.250;2022-08-01T07:45:40;2.47;;;2.27;;
2201;SDS011;1107;48.654;9.250;2022-08-01T07:48:07;2.50;;;2.30;;
2201;SDS011;1107;48.654;9.250;2022-08-01T07:50:36;3.93;;;2.20;;
2201;SDS011;1107;48.654;9.250;2022-08-01T07:53:03;2.20;;;2.10;;
2201;SDS011;1107;48.654;9.250;2022-08-01T07:55:30;2.00;;;1.90;;
2201;SDS011;1107;48.654;9.250;2022-08-01T07:57:57;2.23;;;2.00;;
2201;SDS011;1107;48.654;9.250;2022-08-01T08:00:24;3.20;;;2.07;;
2201;SDS011;1107;48.654;9.250;2022-08-01T08:02:52;2.77;;;2.57;;
2201;SDS011;1107;48.654;9.250;2022-08-01T08:05:19;2.13;;;2.03;;
2201;SDS011;1107;48.654;9.250;2022-08-01T08:07:48;2.50;;;2.30;;
2201;SDS011;1107;48.654;9.250;2022-08-01T08:10:15;2.50;;;2.30;;
2201;SDS011;1107;48.654;9.250;2022-08-01T08:12:42;2.27;;;2.10;;
2201;SDS011;1107;48.654;9.250;2022-08-01T08:15:11;2.70;;;2.50;;
2201;SDS011;1107;48.654;9.250;2022-08-01T08:17:38;2.50;;;2.30;;
2201;SDS011;1107;48.654;9.250;2022-08-01T08:20:06;6.90;;;2.60;;
2201;SDS011;1107;48.654;9.250;2022-08-01T08:22:34;3.10;;;2.90;;
2201;SDS011;1107;48.654;9.250;2022-08-01T08:25:04;3.00;;;2.80;;
2201;SDS011;1107;48.654;9.250;2022-08-01T08:27:32;2.83;;;2.63;;
2201;SDS011;1107;48.654;9.250;2022-08-01T08:29:59;6.47;;;3.13;;
2201;SDS011;1107;48.654;9.250;2022-08-01T08:32:26;3.10;;;2.90;;
2201;SDS011;1107;48.654;9.250;2022-08-01T08:34:53;2.80;;;2.60;;
2201;SDS011;1107;48.654;9.250;2022-08-01T08:37:20;7.73;;;2.80;;
2201;SDS011;1107;48.654;9.250;2022-08-01T08:39:47;3.03;;;2.83;;
2201;SDS011;1107;48.654;9.250;2022-08-01T08:42:16;2.87;;;2.67;;
2201;SDS011;1107;48.654;9.250;2022-08-01T08:44:44;3.10;;;2.70;;
2201;SDS011;1107;48.654;9.250;2022-08-01T08:47:12;3.80;;;3.10;;
2201;SDS011;1107;48.654;9.250;2022-08-01T08:49:41;2.67;;;2.47;;
2201;SDS011;1107;48.654;9.250;2022-08-01T08:52:10;3.00;;;2.80;;
2201;SDS011;1107;48.654;9.250;2022-08-01T08:54:38;10.73;;;3.03;;
2201;SDS011;1107;48.654;9.250;2022-08-01T08:57:07;2.80;;;2.60;;
2201;SDS011;1107;48.654;9.250;2022-08-01T08:59:37;3.00;;;2.80;;
2201;SDS011;1107;48.654;9.250;2022-08-01T09:02:05;3.33;;;3.13;;
2201;SDS011;1107;48.654;9.250;2022-08-01T09:04:34;3.97;;;3.20;;
2201;SDS011;1107;48.654;9.250;2022-08-01T09:07:03;3.20;;;3.00;;
2201;SDS011;1107;48.654;9.250;2022-08-01T09:09:31;3.10;;;2.90;;
2201;SDS011;1107;48.654;9.250;2022-08-01T09:11:58;3.57;;;3.37;;
2201;SDS011;1107;48.654;9.250;2022-08-01T09:14:25;3.50;;;3.20;;
2201;SDS011;1107;48.654;9.250;2022-08-01T09:17:00;3.20;;;3.00;;
2201;SDS011;1107;48.654;9.250;2022-08-01T09:19:34;3.20;;;3.00;;
2201;SDS011;1107;48.654;9.250;2022-08-01T09:22:03;3.43;;;3.23;;
2201;SDS011;1107;48.654;9.250;2022-08-01T09:24:32;3.40;;;3.20;;
2201;SDS011;1107;48.654;9.250;2022-08-01T09:27:00;3.70;;;3.40;;
2201;SDS011;1107;48.654;9.250;2022-08-01T09:29:40;3.13;;;2.93;;
2201;SDS011;1107;48.654;9.250;2022-08-01T09:32:11;4.13;;;3.73;;
2201;SDS011;1107;48.654;9.250;2022-08-01T09:34:38;3.40;;;3.20;;
2201;SDS011;1107;48.654;9.250;2022-08-01T09:37:05;3.70;;;3.50;;
2201;SDS011;1107;48.654;9.250;2022-08-01T09:39:33;3.13;;;2.93;;
2201;SDS011;1107;48.654;9.250;2022-08-01T09:42:18;3.20;;;3.00;;
2201;SDS011;1107;48.654;9.250;2022-08-01T09:44:46;3.70;;;3.40;;
2201;SDS011;1107;48.654;9.250;2022-08-01T09:47:15;4.20;;;3.20;;
2201;SDS011;1107;48.654;9.250;2022-08-01T09:49:43;3.50;;;3.10;;
2201;SDS011;1107;48.654;9.250;2022-08-01T09:52:11;3.30;;;3.10;;
2201;SDS011;1107;48.654;9.250;2022-08-01T09:54:41;3.07;;;2.87;;
2201;SDS011;1107;48.654;9.250;2022-08-01T09:57:11;3.50;;;3.30;;
2201;SDS011;1107;48.654;9.250;2022-08-01T09:59:40;3.40;;;3.10;;
2201;SDS011;1107;48.654;9.250;2022-08-01T10:02:09;4.13;;;3.73;;
2201;SDS011;1107;48.654;9.250;2022-08-01T10:04:47;4.10;;;3.90;;
2201;SDS011;1107;48.654;9.250;2022-08-01T10:07:15;4.80;;;4.37;;
2201;SDS011;1107;48.654;9.250;2022-08-01T10:09:42;3.90;;;3.70;;
2201;SDS011;1107;48.654;9.250;2022-08-01T10:12:12;4.00;;;3.80;;
2201;SDS011;1107;48.654;9.250;2022-08-01T10:14:41;7.83;;;3.40;;
2201;SDS011;1107;48.654;9.250;2022-08-01T10:17:11;3.63;;;3.43;;
2201;SDS011;1107;48.654;9.250;2022-08-01T10:19:41;4.53;;;2.90;;
2201;SDS011;1107;48.654;9.250;2022-08-01T10:22:12;3.40;;;3.20;;
2201;SDS011;1107;48.654;9.250;2022-08-01T10:24:42;3.57;;;3.37;;
2201;SDS011;1107;48.654;9.250;2022-08-01T10:27:11;4.27;;;3.40;;
2201;SDS011;1107;48.654;9.250;2022-08-01T10:29:43;4.40;;;4.20;;
2201;SDS011;1107;48.654;9.250;2022-08-01T10:32:14;4.20;;;4.00;;
2201;SDS011;1107;48.654;9.250;2022-08-01T10:34:43;4.83;;;4.53;;
2201;SDS011;1107;48.654;9.250;2022-08-01T10:37:13;5.27;;;4.97;;
2201;SDS011;1107;48.654;9.250;2022-08-01T10:39:41;5.67;;;5.37;;
2201;SDS011;1107;48.654;9.250;2022-08-01T10:42:09;6.47;;;6.10;;
2201;SDS011;1107;48.654;9.250;2022-08-01T10:44:37;7.63;;;6.03;;
2201;SDS011;1107;48.654;9.250;2022-08-01T10:47:08;7.10;;;6.80;;
2201;SDS011;1107;48.654;9.250;2022-08-01T10:49:39;7.37;;;6.87;;
2201;SDS011;1107;48.654;9.250;2022-08-01T10:52:15;6.57;;;6.27;;
2201;SDS011;1107;48.654;9.250;2022-08-01T10:54:43;7.27;;;6.90;;
2201;SDS011;1107;48.654;9.250;2022-08-01T10:57:10;7.10;;;6.70;;
2201;SDS011;1107;48.654;9.250;2022-08-01T10:59:47;8.00;;;6.23;;
2201;SDS011;1107;48.654;9.250;2022-08-01T11:02:25;6.73;;;6.13;;
2201;SDS011;1107;48.654;9.250;2022-08-01T11:04:54;5.97;;;5.67;;
2201;SDS011;1107;48.654;9.250;2022-08-01T11:07:37;5.40;;;5.20;;
2201;SDS011;1107;48.654;9.250;2022-08-01T11:10:15;5.70;;;5.30;;
2201;SDS011;1107;48.654;9.250;2022-08-01T11:12:48;5.77;;;5.40;;
2201;SDS011;1107;48.654;9.250;2022-08-01T11:15:24;6.33;;;6.03;;
2201;SDS011;1107;48.654;9.250;2022-08-01T11:17:52;5.60;;;5.30;;
2201;SDS011;1107;48.654;9.250;2022-08-01T11:20:20;6.00;;;5.80;;
2201;SDS011;1107;48.654;9.250;2022-08-01T11:26:08;6.40;;;6.10;;
2201;SDS011;1107;48.654;9.250;2022-08-01T11:28:39;6.20;;;5.80;;
2201;SDS011;1107;48.654;9.250;2022-08-01T11:33:59;6.77;;;5.50;;
2201;SDS011;1107;48.654;9.250;2022-08-01T11:36:27;6.00;;;5.70;;
2201;SDS011;1107;48.654;9.250;2022-08-01T11:39:13;4.93;;;4.73;;
2201;SDS011;1107;48.654;9.250;2022-08-01T11:41:42;5.03;;;4.63;;
2201;SDS011;1107;48.654;9.250;2022-08-01T11:44:10;5.90;;;4.87;;
2201;SDS011;1107;48.654;9.250;2022-08-01T11:46:49;5.00;;;4.80;;
2201;SDS011;1107;48.654;9.250;2022-08-01T11:49:31;5.13;;;4.77;;
2201;SDS011;1107;48.654;9.250;2022-08-01T11:52:02;6.67;;;4.43;;
2201;SDS011;1107;48.654;9.250;2022-08-01T11:54:33;5.50;;;5.10;;
2201;SDS011;1107;48.654;9.250;2022-08-01T11:57:02;5.00;;;4.70;;
2201;SDS011;1107;48.654;9.250;2022-08-01T11:59:35;4.83;;;4.63;;
2201;SDS011;1107;48.654;9.250;2022-08-01T12:02:03;5.40;;;5.20;;
2201;SDS011;1107;48.654;9.250;2022-08-01T12:04:46;4.70;;;4.40;;
2201;SDS011;1107;48.654;9.250;2022-08-01T12:07:15;5.60;;;5.30;;
2201;SDS011;1107;48.654;9.250;2022-08-01T12:09:44;4.93;;;4.73;;
2201;SDS011;1107;48.654;9.250;2022-08-01T12:12:14;4.73;;;4.43;;
2201;SDS011;1107;48.654;9.250;2022-08-01T12:14:45;5.00;;;4.70;;
2201;SDS011;1107;48.654;9.250;2022-08-01T12:17:27;4.77;;;4.57;;
2201;SDS011;1107;48.654;9.250;2022-08-01T12:19:55;5.23;;;4.83;;
2201;SDS011;1107;48.654;9.250;2022-08-01T12:22:23;4.93;;;4.50;;
2201;SDS011;1107;48.654;9.250;2022-08-01T12:24:52;4.80;;;4.60;;
2201;SDS011;1107;48.654;9.250;2022-08-01T12:27:26;4.40;;;4.20;;
2201;SDS011;1107;48.654;9.250;2022-08-01T12:29:55;3.80;;;3.60;;
2201;SDS011;1107;48.654;9.250;2022-08-01T12:32:23;5.00;;;4.70;;
2201;SDS011;1107;48.654;9.250;2022-08-01T12:34:52;4.73;;;4.53;;
2201;SDS011;1107;48.654;9.250;2022-08-01T12:37:20;4.97;;;4.67;;
2201;SDS011;1107;48.654;9.250;2022-08-01T12:39:47;4.33;;;4.03;;
2201;SDS011;1107;48.654;9.250;2022-08-01T12:42:16;4.97;;;4.67;;
2201;SDS011;1107;48.654;9.250;2022-08-01T12:44:45;5.10;;;4.90;;
2201;SDS011;1107;48.654;9.250;2022-08-01T12:47:14;5.10;;;4.70;;
2201;SDS011;1107;48.654;9.250;2022-08-01T12:49:42;4.33;;;4.13;;
2201;SDS011;1107;48.654;9.250;2022-08-01T12:52:10;4.70;;;4.40;;
2201;SDS011;1107;48.654;9.250;2022-08-01T12:57:28;4.83;;;4.63;;
2201;SDS011;1107;48.654;9.250;2022-08-01T13:00:04;4.50;;;4.30;;
2201;SDS011;1107;48.654;9.250;2022-08-01T13:02:40;5.43;;;4.30;;
2201;SDS011;1107;48.654;9.250;2022-08-01T13:05:08;4.33;;;4.13;;
2201;SDS011;1107;48.654;9.250;2022-08-01T13:07:37;4.37;;;3.97;;
2201;SDS011;1107;48.654;9.250;2022-08-01T13:10:05;4.03;;;3.60;;
2201;SDS011;1107;48.654;9.250;2022-08-01T13:12:34;4.20;;;3.90;;
2201;SDS011;1107;48.654;9.250;2022-08-01T13:17:44;7.20;;;4.07;;
2201;SDS011;1107;48.654;9.250;2022-08-01T13:20:20;4.20;;;3.80;;
2201;SDS011;1107;48.654;9.250;2022-08-01T13:22:55;3.97;;;3.77;;
2201;SDS011;1107;48.654;9.250;2022-08-01T13:25:46;4.40;;;4.20;;
2201;SDS011;1107;48.654;9.250;2022-08-01T13:28:20;9.23;;;3.93;;
2201;SDS011;1107;48.654;9.250;2022-08-01T13:30:55;4.40;;;4.20;;
2201;SDS011;1107;48.654;9.250;2022-08-01T13:33:24;4.47;;;4.27;;
2201;SDS011;1107;48.654;9.250;2022-08-01T13:35:52;7.87;;;4.70;;
2201;SDS011;1107;48.654;9.250;2022-08-01T13:38:20;4.37;;;4.10;;
2201;SDS011;1107;48.654;9.250;2022-08-01T13:41:08;4.87;;;4.37;;
2201;SDS011;1107;48.654;9.250;2022-08-01T13:43:36;4.23;;;3.97;;
2201;SDS011;1107;48.654;9.250;2022-08-01T13:46:03;4.20;;;3.80;;
2201;SDS011;1107;48.654;9.250;2022-08-01T13:48:31;4.10;;;3.90;;
2201;SDS011;1107;48.654;9.250;2022-08-01T13:50:59;4.30;;;4.10;;
2201;SDS011;1107;48.654;9.250;2022-08-01T13:53:26;4.20;;;3.90;;
2201;SDS011;1107;48.654;9.250;2022-08-01T13:55:53;4.00;;;3.80;;
2201;SDS011;1107;48.654;9.250;2022-08-01T13:58:21;3.90;;;3.70;;
2201;SDS011;1107;48.654;9.250;2022-08-01T14:00:49;4.00;;;3.80;;
2201;SDS011;1107;48.654;9.250;2022-08-01T14:03:16;3.67;;;3.43;;
2201;SDS011;1107;48.654;9.250;2022-08-01T14:05:43;3.60;;;3.40;;
2201;SDS011;1107;48.654;9.250;2022-08-01T14:08:11;3.50;;;3.30;;
2201;SDS011;1107;48.654;9.250;2022-08-01T14:10:38;4.03;;;3.30;;
2201;SDS011;1107;48.654;9.250;2022-08-01T14:13:05;3.50;;;3.30;;
2201;SDS011;1107;48.654;9.250;2022-08-01T14:15:32;3.80;;;3.57;;
2201;SDS011;1107;48.654;9.250;2022-08-01T14:18:00;2.90;;;2.70;;
2201;SDS011;1107;48.654;9.250;2022-08-01T14:20:27;3.30;;;3.10;;
2201;SDS011;1107;48.654;9.250;2022-08-01T14:22:54;5.10;;;3.40;;
2201;SDS011;1107;48.654;9.250;2022-08-01T14:25:21;3.13;;;2.93;;
2201;SDS011;1107;48.654;9.250;2022-08-01T14:27:48;4.07;;;3.63;;
2201;SDS011;1107;48.654;9.250;2022-08-01T14:30:15;4.67;;;2.60;;
2201;SDS011;1107;48.654;9.250;2022-08-01T14:32:42;3.17;;;2.97;;
2201;SDS011;1107;48.654;9.250;2022-08-01T14:35:11;3.43;;;2.93;;
2201;SDS011;1107;48.654;9.250;2022-08-01T14:37:38;4.27;;;3.20;;
2201;SDS011;1107;48.654;9.250;2022-08-01T14:40:05;8.33;;;3.00;;
2201;SDS011;1107;48.654;9.250;2022-08-01T14:42:34;3.00;;;2.80;;
2201;SDS011;1107;48.654;9.250;2022-08-01T14:45:02;3.30;;;3.10;;
2201;SDS011;1107;48.654;9.250;2022-08-01T14:47:33;3.10;;;2.80;;
2201;SDS011;1107;48.654;9.250;2022-08-01T14:50:01;13.77;;;2.87;;
2201;SDS011;1107;48.654;9.250;2022-08-01T14:52:30;3.43;;;3.17;;
2201;SDS011;1107;48.654;9.250;2022-08-01T14:54:57;6.83;;;3.17;;
2201;SDS011;1107;48.654;9.250;2022-08-01T14:57:24;3.63;;;3.07;;
2201;SDS011;1107;48.654;9.250;2022-08-01T14:59:52;4.10;;;3.03;;
2201;SDS011;1107;48.654;9.250;2022-08-01T15:02:19;3.47;;;3.17;;
2201;SDS011;1107;48.654;9.250;2022-08-01T15:04:46;4.23;;;3.80;;
2201;SDS011;1107;48.654;9.250;2022-08-01T15:07:14;3.33;;;2.73;;
2201;SDS011;1107;48.654;9.250;2022-08-01T15:09:43;4.23;;;3.30;;
2201;SDS011;1107;48.654;9.250;2022-08-01T15:12:11;5.20;;;3.67;;
2201;SDS011;1107;48.654;9.250;2022-08-01T15:14:38;3.37;;;3.07;;
2201;SDS011;1107;48.654;9.250;2022-08-01T15:17:15;3.67;;;3.23;;
2201;SDS011;1107;48.654;9.250;2022-08-01T15:19:42;3.90;;;3.70;;
2201;SDS011;1107;48.654;9.250;2022-08-01T15:22:09;3.53;;;3.23;;
2201;SDS011;1107;48.654;9.250;2022-08-01T15:24:36;2.97;;;2.77;;
2201;SDS011;1107;48.654;9.250;2022-08-01T15:27:05;3.17;;;2.97;;
2201;SDS011;1107;48.654;9.250;2022-08-01T15:29:32;3.37;;;3.17;;
2201;SDS011;1107;48.654;9.250;2022-08-01T15:31:59;2.97;;;2.77;;
2201;SDS011;1107;48.654;9.250;2022-08-01T15:34:27;2.90;;;2.70;;
2201;SDS011;1107;48.654;9.250;2022-08-01T15:36:54;3.03;;;2.67;;
2201;SDS011;1107;48.654;9.250;2022-08-01T15:39:21;8.30;;;2.97;;
2201;SDS011;1107;48.654;9.250;2022-08-01T15:41:48;3.50;;;3.30;;